sensor_id;sensor_type;location;lat;lon;timestamp;P1;durP1;ratioP1;P2;durP2;ratioP2
76039;SDS011;64736;50.462;4.850;2023-06-01T00:00:33;7.10;;;2.80;;
76039;SDS011;64736;50.462;4.850;2023-06-01T00:03:00;7.90;;;3.92;;
76039;SDS011;64736;50.462;4.850;2023-06-01T00:05:25;6.50;;;3.28;;
76039;SDS011;64736;50.462;4.850;2023-06-01T00:07:51;6.50;;;2.90;;
76039;SDS011;64736;50.462;4.850;2023-06-01T00:10:17;6.68;;;2.92;;
76039;SDS011;64736;50.462;4.850;2023-06-01T00:12:43;6.55;;;3.65;;
76039;SDS011;64736;50.462;4.850;2023-06-01T00:15:09;10.93;;;3.25;;
76039;SDS011;64736;50.462;4.850;2023-06-01T00:17:35;6.22;;;3.58;;
76039;SDS011;64736;50.462;4.850;2023-06-01T00:20:00;7.03;;;3.33;;
76039;SDS011;64736;50.462;4.850;2023-06-01T00:22:27;6.05;;;3.22;;
76039;SDS011;64736;50.462;4.850;2023-06-01T00:25:00;7.20;;;3.60;;
76039;SDS011;64736;50.462;4.850;2023-06-01T00:27:26;7.28;;;3.58;;
76039;SDS011;64736;50.462;4.850;2023-06-01T00:29:51;9.00;;;4.50;;
76039;SDS011;64736;50.462;4.850;2023-06-01T00:32:17;8.52;;;3.85;;
76039;SDS011;64736;50.462;4.850;2023-06-01T00:34:43;10.77;;;4.53;;
76039;SDS011;64736;50.462;4.850;2023-06-01T00:37:08;8.40;;;4.43;;
76039;SDS011;64736;50.462;4.850;2023-06-01T00:39:34;8.75;;;4.40;;
76039;SDS011;64736;50.462;4.850;2023-06-01T00:42:00;7.57;;;3.78;;
76039;SDS011;64736;50.462;4.850;2023-06-01T00:44:27;8.90;;;4.22;;
76039;SDS011;64736;50.462;4.850;2023-06-01T00:46:52;7.88;;;4.55;;
76039;SDS011;64736;50.462;4.850;2023-06-01T00:49:18;13.57;;;4.60;;
76039;SDS011;64736;50.462;4.850;2023-06-01T00:51:44;9.68;;;4.97;;
76039;SDS011;64736;50.462;4.850;2023-06-01T00:54:10;8.27;;;4.03;;
76039;SDS011;64736;50.462;4.850;2023-06-01T00:56:36;7.00;;;3.53;;
76039;SDS011;64736;50.462;4.850;2023-06-01T00:59:02;9.07;;;4.70;;
76039;SDS011;64736;50.462;4.850;2023-06-01T01:01:28;8.13;;;4.63;;
76039;SDS011;64736;50.462;4.850;2023-06-01T01:03:54;9.60;;;4.82;;
76039;SDS011;64736;50.462;4.850;2023-06-01T01:09:21;11.70;;;4.57;;
76039;SDS011;64736;50.462;4.850;2023-06-01T01:17:43;9.25;;;4.82;;
76039;SDS011;64736;50.462;4.850;2023-06-01T01:20:15;9.10;;;4.75;;
76039;SDS011;64736;50.462;4.850;2023-06-01T01:26:08;10.38;;;4.32;;
76039;SDS011;64736;50.462;4.850;2023-06-01T01:33:53;9.10;;;5.03;;
76039;SDS011;64736;50.462;4.850;2023-06-01T01:36:22;10.07;;;4.55;;
76039;SDS011;64736;50.462;4.850;2023-06-01T01:38:48;7.82;;;4.25;;
76039;SDS011;64736;50.462;4.850;2023-06-01T01:41:14;9.00;;;4.72;;
76039;SDS011;64736;50.462;4.850;2023-06-01T01:43:39;8.15;;;4.00;;
76039;SDS011;64736;50.462;4.850;2023-06-01T01:48:46;9.38;;;4.53;;
76039;SDS011;64736;50.462;4.850;2023-06-01T01:51:29;9.73;;;4.97;;
76039;SDS011;64736;50.462;4.850;2023-06-01T01:53:58;10.13;;;5.40;;
76039;SDS011;64736;50.462;4.850;2023-06-01T01:56:24;8.77;;;5.43;;
76039;SDS011;64736;50.462;4.850;2023-06-01T01:58:51;10.48;;;4.88;;
76039;SDS011;64736;50.462;4.850;2023-06-01T02:01:19;9.60;;;5.05;;
76039;SDS011;64736;50.462;4.850;2023-06-01T02:03:45;7.18;;;4.28;;
76039;SDS011;64736;50.462;4.850;2023-06-01T02:06:11;10.38;;;5.50;;
76039;SDS011;64736;50.462;4.850;2023-06-01T02:08:37;10.90;;;4.82;;
76039;SDS011;64736;50.462;4.850;2023-06-01T02:11:02;9.45;;;5.20;;
76039;SDS011;64736;50.462;4.850;2023-06-01T02:13:28;9.93;;;5.40;;
76039;SDS011;64736;50.462;4.850;2023-06-01T02:15:54;10.63;;;5.05;;
76039;SDS011;64736;50.462;4.850;2023-06-01T02:18:20;10.77;;;4.90;;
76039;SDS011;64736;50.462;4.850;2023-06-01T02:20:45;11.23;;;4.97;;
76039;SDS011;64736;50.462;4.850;2023-06-01T02:23:11;10.32;;;5.82;;
76039;SDS011;64736;50.462;4.850;2023-06-01T02:25:37;9.43;;;5.38;;
76039;SDS011;64736;50.462;4.850;2023-06-01T02:28:03;9.13;;;4.53;;
76039;SDS011;64736;50.462;4.850;2023-06-01T02:30:28;11.35;;;5.72;;
76039;SDS011;64736;50.462;4.850;2023-06-01T02:32:54;10.07;;;4.82;;
76039;SDS011;64736;50.462;4.850;2023-06-01T02:35:20;10.80;;;4.93;;
76039;SDS011;64736;50.462;4.850;2023-06-01T02:37:46;14.10;;;5.75;;
76039;SDS011;64736;50.462;4.850;2023-06-01T02:40:11;10.45;;;5.50;;
76039;SDS011;64736;50.462;4.850;2023-06-01T02:42:37;9.40;;;4.88;;
76039;SDS011;64736;50.462;4.850;2023-06-01T02:45:06;10.15;;;5.22;;
76039;SDS011;64736;50.462;4.850;2023-06-01T02:47:34;12.95;;;5.78;;
76039;SDS011;64736;50.462;4.850;2023-06-01T02:50:00;12.20;;;5.97;;
76039;SDS011;64736;50.462;4.850;2023-06-01T02:52:26;11.27;;;4.60;;
76039;SDS011;64736;50.462;4.850;2023-06-01T02:54:52;12.63;;;5.55;;
76039;SDS011;64736;50.462;4.850;2023-06-01T02:57:18;11.25;;;5.55;;
76039;SDS011;64736;50.462;4.850;2023-06-01T02:59:44;10.48;;;5.18;;
76039;SDS011;64736;50.462;4.850;2023-06-01T03:02:09;14.18;;;5.88;;
76039;SDS011;64736;50.462;4.850;2023-06-01T03:04:35;10.93;;;5.28;;
76039;SDS011;64736;50.462;4.850;2023-06-01T03:07:01;10.73;;;6.05;;
76039;SDS011;64736;50.462;4.850;2023-06-01T03:09:27;9.70;;;5.45;;
76039;SDS011;64736;50.462;4.850;2023-06-01T03:11:52;10.13;;;5.10;;
76039;SDS011;64736;50.462;4.850;2023-06-01T03:14:18;10.32;;;5.28;;
76039;SDS011;64736;50.462;4.850;2023-06-01T03:16:44;12.13;;;5.22;;
76039;SDS011;64736;50.462;4.850;2023-06-01T03:19:10;12.10;;;5.00;;
76039;SDS011;64736;50.462;4.850;2023-06-01T03:21:35;12.32;;;5.40;;
76039;SDS011;64736;50.462;4.850;2023-06-01T03:24:02;10.35;;;5.10;;
76039;SDS011;64736;50.462;4.850;2023-06-01T03:26:28;10.10;;;6.50;;
76039;SDS011;64736;50.462;4.850;2023-06-01T03:28:53;10.93;;;5.85;;
76039;SDS011;64736;50.462;4.850;2023-06-01T03:31:20;10.15;;;5.53;;
76039;SDS011;64736;50.462;4.850;2023-06-01T03:33:47;13.20;;;5.90;;
76039;SDS011;64736;50.462;4.850;2023-06-01T03:36:12;12.27;;;6.75;;
76039;SDS011;64736;50.462;4.850;2023-06-01T03:38:39;11.15;;;5.63;;
76039;SDS011;64736;50.462;4.850;2023-06-01T03:41:05;14.45;;;6.45;;
76039;SDS011;64736;50.462;4.850;2023-06-01T03:43:31;11.63;;;6.00;;
76039;SDS011;64736;50.462;4.850;2023-06-01T03:45:56;9.75;;;5.72;;
76039;SDS011;64736;50.462;4.850;2023-06-01T03:48:22;11.02;;;5.65;;
76039;SDS011;64736;50.462;4.850;2023-06-01T03:50:48;9.23;;;5.32;;
76039;SDS011;64736;50.462;4.850;2023-06-01T03:53:13;12.63;;;5.75;;
76039;SDS011;64736;50.462;4.850;2023-06-01T03:55:39;10.02;;;5.15;;
76039;SDS011;64736;50.462;4.850;2023-06-01T03:58:05;11.45;;;5.90;;
76039;SDS011;64736;50.462;4.850;2023-06-01T04:00:35;12.45;;;6.28;;
76039;SDS011;64736;50.462;4.850;2023-06-01T04:03:01;10.95;;;5.85;;
76039;SDS011;64736;50.462;4.850;2023-06-01T04:05:32;10.63;;;5.30;;
76039;SDS011;64736;50.462;4.850;2023-06-01T04:07:58;13.23;;;6.70;;
76039;SDS011;64736;50.462;4.850;2023-06-01T04:10:24;13.43;;;6.47;;
76039;SDS011;64736;50.462;4.850;2023-06-01T04:12:50;15.05;;;6.90;;
76039;SDS011;64736;50.462;4.850;2023-06-01T04:15:16;11.20;;;5.57;;
76039;SDS011;64736;50.462;4.850;2023-06-01T04:17:43;12.13;;;5.90;;
76039;SDS011;64736;50.462;4.850;2023-06-01T04:20:10;12.27;;;6.50;;
76039;SDS011;64736;50.462;4.850;2023-06-01T04:22:38;14.13;;;6.40;;
76039;SDS011;64736;50.462;4.850;2023-06-01T04:25:08;12.95;;;5.78;;
76039;SDS011;64736;50.462;4.850;2023-06-01T04:27:36;11.95;;;6.55;;
76039;SDS011;64736;50.462;4.850;2023-06-01T04:30:06;12.68;;;6.43;;
76039;SDS011;64736;50.462;4.850;2023-06-01T04:32:35;11.98;;;5.68;;
76039;SDS011;64736;50.462;4.850;2023-06-01T04:35:03;12.75;;;6.05;;
76039;SDS011;64736;50.462;4.850;2023-06-01T04:37:33;12.07;;;6.68;;
76039;SDS011;64736;50.462;4.850;2023-06-01T04:40:01;13.25;;;6.40;;
76039;SDS011;64736;50.462;4.850;2023-06-01T04:42:32;10.95;;;6.05;;
76039;SDS011;64736;50.462;4.850;2023-06-01T04:44:58;17.30;;;7.20;;
76039;SDS011;64736;50.462;4.850;2023-06-01T04:47:24;12.50;;;6.78;;
76039;SDS011;64736;50.462;4.850;2023-06-01T04:49:50;12.02;;;6.93;;
76039;SDS011;64736;50.462;4.850;2023-06-01T04:52:16;12.68;;;6.88;;
76039;SDS011;64736;50.462;4.850;2023-06-01T04:54:42;12.90;;;6.93;;
76039;SDS011;64736;50.462;4.850;2023-06-01T04:57:07;17.75;;;7.50;;
76039;SDS011;64736;50.462;4.850;2023-06-01T04:59:33;11.80;;;7.13;;
76039;SDS011;64736;50.462;4.850;2023-06-01T05:01:59;14.60;;;7.20;;
76039;SDS011;64736;50.462;4.850;2023-06-01T05:04:25;11.85;;;6.68;;
76039;SDS011;64736;50.462;4.850;2023-06-01T05:06:51;12.77;;;7.30;;
76039;SDS011;64736;50.462;4.850;2023-06-01T05:09:17;11.60;;;6.57;;
76039;SDS011;64736;50.462;4.850;2023-06-01T05:11:43;14.52;;;7.70;;
76039;SDS011;64736;50.462;4.850;2023-06-01T05:14:09;13.75;;;7.90;;
76039;SDS011;64736;50.462;4.850;2023-06-01T05:16:37;13.93;;;7.22;;
76039;SDS011;64736;50.462;4.850;2023-06-01T05:19:02;14.80;;;7.10;;
76039;SDS011;64736;50.462;4.850;2023-06-01T05:21:28;17.85;;;8.48;;
76039;SDS011;64736;50.462;4.850;2023-06-01T05:23:54;13.63;;;7.90;;
76039;SDS011;64736;50.462;4.850;2023-06-01T05:26:20;14.38;;;8.90;;
76039;SDS011;64736;50.462;4.850;2023-06-01T05:28:47;15.70;;;7.32;;
76039;SDS011;64736;50.462;4.850;2023-06-01T05:31:12;14.98;;;8.10;;
76039;SDS011;64736;50.462;4.850;2023-06-01T05:33:38;16.90;;;7.80;;
76039;SDS011;64736;50.462;4.850;2023-06-01T05:36:04;13.55;;;7.57;;
76039;SDS011;64736;50.462;4.850;2023-06-01T05:38:30;15.73;;;7.50;;
76039;SDS011;64736;50.462;4.850;2023-06-01T05:40:56;17.02;;;8.05;;
76039;SDS011;64736;50.462;4.850;2023-06-01T05:43:21;15.95;;;7.57;;
76039;SDS011;64736;50.462;4.850;2023-06-01T05:45:47;13.70;;;7.43;;
76039;SDS011;64736;50.462;4.850;2023-06-01T05:48:13;16.67;;;9.05;;
76039;SDS011;64736;50.462;4.850;2023-06-01T05:50:40;17.15;;;9.02;;
76039;SDS011;64736;50.462;4.850;2023-06-01T05:53:07;18.25;;;8.48;;
76039;SDS011;64736;50.462;4.850;2023-06-01T05:55:33;18.95;;;8.48;;
76039;SDS011;64736;50.462;4.850;2023-06-01T05:57:59;18.38;;;9.70;;
76039;SDS011;64736;50.462;4.850;2023-06-01T06:00:25;16.52;;;8.60;;
76039;SDS011;64736;50.462;4.850;2023-06-01T06:02:50;16.17;;;10.38;;
76039;SDS011;64736;50.462;4.850;2023-06-01T06:05:16;16.77;;;7.55;;
76039;SDS011;64736;50.462;4.850;2023-06-01T06:07:42;15.27;;;9.15;;
76039;SDS011;64736;50.462;4.850;2023-06-01T06:10:08;16.35;;;10.52;;
76039;SDS011;64736;50.462;4.850;2023-06-01T06:12:34;18.17;;;9.95;;
76039;SDS011;64736;50.462;4.850;2023-06-01T06:15:00;18.38;;;10.63;;
76039;SDS011;64736;50.462;4.850;2023-06-01T06:17:26;17.77;;;10.88;;
76039;SDS011;64736;50.462;4.850;2023-06-01T06:19:51;18.88;;;11.95;;
76039;SDS011;64736;50.462;4.850;2023-06-01T06:22:17;22.98;;;12.18;;
76039;SDS011;64736;50.462;4.850;2023-06-01T06:24:43;22.40;;;13.90;;
76039;SDS011;64736;50.462;4.850;2023-06-01T06:27:09;21.70;;;13.15;;
76039;SDS011;64736;50.462;4.850;2023-06-01T06:29:34;22.42;;;12.13;;
76039;SDS011;64736;50.462;4.850;2023-06-01T06:32:00;22.80;;;14.13;;
76039;SDS011;64736;50.462;4.850;2023-06-01T06:34:26;25.67;;;15.75;;
76039;SDS011;64736;50.462;4.850;2023-06-01T06:36:59;25.58;;;16.38;;
76039;SDS011;64736;50.462;4.850;2023-06-01T06:39:25;22.77;;;14.43;;
76039;SDS011;64736;50.462;4.850;2023-06-01T06:41:51;27.00;;;17.02;;
76039;SDS011;64736;50.462;4.850;2023-06-01T06:44:16;25.85;;;17.13;;
76039;SDS011;64736;50.462;4.850;2023-06-01T06:46:42;25.80;;;16.60;;
76039;SDS011;64736;50.462;4.850;2023-06-01T06:49:08;29.30;;;16.08;;
76039;SDS011;64736;50.462;4.850;2023-06-01T06:51:36;24.25;;;15.43;;
76039;SDS011;64736;50.462;4.850;2023-06-01T06:54:02;25.98;;;14.73;;
76039;SDS011;64736;50.462;4.850;2023-06-01T06:56:30;29.63;;;17.30;;
76039;SDS011;64736;50.462;4.850;2023-06-01T06:58:56;26.80;;;17.42;;
76039;SDS011;64736;50.462;4.850;2023-06-01T07:01:22;29.83;;;17.80;;
76039;SDS011;64736;50.462;4.850;2023-06-01T07:03:51;25.92;;;13.77;;
76039;SDS011;64736;50.462;4.850;2023-06-01T07:06:17;27.58;;;19.73;;
76039;SDS011;64736;50.462;4.850;2023-06-01T07:08:43;30.00;;;18.30;;
76039;SDS011;64736;50.462;4.850;2023-06-01T07:11:09;26.05;;;15.70;;
76039;SDS011;64736;50.462;4.850;2023-06-01T07:13:35;24.00;;;17.00;;
76039;SDS011;64736;50.462;4.850;2023-06-01T07:16:04;24.70;;;16.33;;
76039;SDS011;64736;50.462;4.850;2023-06-01T07:18:30;25.55;;;17.52;;
76039;SDS011;64736;50.462;4.850;2023-06-01T07:20:57;30.30;;;18.55;;
76039;SDS011;64736;50.462;4.850;2023-06-01T07:23:23;32.75;;;18.30;;
76039;SDS011;64736;50.462;4.850;2023-06-01T07:25:48;29.33;;;19.20;;
76039;SDS011;64736;50.462;4.850;2023-06-01T07:28:14;32.63;;;20.40;;
76039;SDS011;64736;50.462;4.850;2023-06-01T07:30:41;31.80;;;18.00;;
76039;SDS011;64736;50.462;4.850;2023-06-01T07:33:07;31.45;;;19.95;;
76039;SDS011;64736;50.462;4.850;2023-06-01T07:35:33;32.25;;;18.95;;
76039;SDS011;64736;50.462;4.850;2023-06-01T07:38:00;34.22;;;19.20;;
76039;SDS011;64736;50.462;4.850;2023-06-01T07:40:29;31.67;;;19.58;;
76039;SDS011;64736;50.462;4.850;2023-06-01T07:42:58;31.23;;;19.23;;
76039;SDS011;64736;50.462;4.850;2023-06-01T07:45:24;30.40;;;18.48;;
76039;SDS011;64736;50.462;4.850;2023-06-01T07:47:49;32.80;;;18.27;;
76039;SDS011;64736;50.462;4.850;2023-06-01T07:50:17;31.05;;;18.58;;
76039;SDS011;64736;50.462;4.850;2023-06-01T07:52:43;31.15;;;19.58;;
76039;SDS011;64736;50.462;4.850;2023-06-01T07:55:09;30.88;;;19.73;;
76039;SDS011;64736;50.462;4.850;2023-06-01T07:57:35;33.60;;;21.42;;
76039;SDS011;64736;50.462;4.850;2023-06-01T08:00:01;33.72;;;20.15;;
76039;SDS011;64736;50.462;4.850;2023-06-01T08:02:29;32.95;;;19.92;;
76039;SDS011;64736;50.462;4.850;2023-06-01T08:04:55;32.20;;;19.73;;
76039;SDS011;64736;50.462;4.850;2023-06-01T08:07:22;34.03;;;21.00;;
76039;SDS011;64736;50.462;4.850;2023-06-01T08:09:48;33.15;;;21.15;;
76039;SDS011;64736;50.462;4.850;2023-06-01T08:12:14;32.72;;;20.67;;
76039;SDS011;64736;50.462;4.850;2023-06-01T08:14:40;30.98;;;19.42;;
76039;SDS011;64736;50.462;4.850;2023-06-01T08:17:06;33.13;;;18.15;;
76039;SDS011;64736;50.462;4.850;2023-06-01T08:19:32;33.72;;;19.95;;
76039;SDS011;64736;50.462;4.850;2023-06-01T08:21:59;33.88;;;20.88;;
76039;SDS011;64736;50.462;4.850;2023-06-01T08:24:25;34.20;;;18.73;;
76039;SDS011;64736;50.462;4.850;2023-06-01T08:26:54;32.22;;;20.38;;
76039;SDS011;64736;50.462;4.850;2023-06-01T08:29:21;31.52;;;19.50;;
76039;SDS011;64736;50.462;4.850;2023-06-01T08:31:47;33.78;;;20.63;;
76039;SDS011;64736;50.462;4.850;2023-06-01T08:34:13;29.23;;;16.42;;
76039;SDS011;64736;50.462;4.850;2023-06-01T08:36:38;29.08;;;18.95;;
76039;SDS011;64736;50.462;4.850;2023-06-01T08:39:22;31.92;;;19.85;;
76039;SDS011;64736;50.462;4.850;2023-06-01T08:44:53;35.85;;;20.80;;
76039;SDS011;64736;50.462;4.850;2023-06-01T08:47:23;30.55;;;18.02;;
76039;SDS011;64736;50.462;4.850;2023-06-01T08:49:50;34.70;;;19.30;;
76039;SDS011;64736;50.462;4.850;2023-06-01T08:52:21;33.35;;;19.42;;
76039;SDS011;64736;50.462;4.850;2023-06-01T08:54:53;28.67;;;19.10;;
76039;SDS011;64736;50.462;4.850;2023-06-01T08:57:19;30.60;;;20.08;;
76039;SDS011;64736;50.462;4.850;2023-06-01T08:59:45;32.58;;;20.80;;
76039;SDS011;64736;50.462;4.850;2023-06-01T09:02:12;34.80;;;22.08;;
76039;SDS011;64736;50.462;4.850;2023-06-01T09:04:42;33.58;;;21.75;;
76039;SDS011;64736;50.462;4.850;2023-06-01T09:07:10;36.08;;;20.50;;
76039;SDS011;64736;50.462;4.850;2023-06-01T09:09:37;30.38;;;18.73;;
76039;SDS011;64736;50.462;4.850;2023-06-01T09:15:10;38.35;;;22.00;;
76039;SDS011;64736;50.462;4.850;2023-06-01T09:17:38;32.92;;;19.65;;
76039;SDS011;64736;50.462;4.850;2023-06-01T09:20:05;33.33;;;19.05;;
76039;SDS011;64736;50.462;4.850;2023-06-01T09:22:38;35.80;;;21.83;;
76039;SDS011;64736;50.462;4.850;2023-06-01T09:25:05;30.80;;;19.15;;
76039;SDS011;64736;50.462;4.850;2023-06-01T09:30:43;33.47;;;20.48;;
76039;SDS011;64736;50.462;4.850;2023-06-01T09:33:13;29.80;;;18.25;;
76039;SDS011;64736;50.462;4.850;2023-06-01T09:35:44;30.88;;;17.25;;
76039;SDS011;64736;50.462;4.850;2023-06-01T09:38:11;30.55;;;18.52;;
76039;SDS011;64736;50.462;4.850;2023-06-01T09:40:55;33.30;;;21.33;;
76039;SDS011;64736;50.462;4.850;2023-06-01T09:43:22;28.55;;;18.13;;
76039;SDS011;64736;50.462;4.850;2023-06-01T09:46:04;32.05;;;17.98;;
76039;SDS011;64736;50.462;4.850;2023-06-01T09:48:33;29.55;;;16.55;;
76039;SDS011;64736;50.462;4.850;2023-06-01T09:51:00;30.85;;;16.50;;
76039;SDS011;64736;50.462;4.850;2023-06-01T09:53:25;32.83;;;18.75;;
76039;SDS011;64736;50.462;4.850;2023-06-01T09:56:01;26.33;;;14.95;;
76039;SDS011;64736;50.462;4.850;2023-06-01T09:58:27;23.85;;;15.15;;
76039;SDS011;64736;50.462;4.850;2023-06-01T10:00:53;28.50;;;15.70;;
76039;SDS011;64736;50.462;4.850;2023-06-01T10:03:21;21.63;;;13.30;;
76039;SDS011;64736;50.462;4.850;2023-06-01T10:05:48;25.75;;;15.75;;
76039;SDS011;64736;50.462;4.850;2023-06-01T10:08:15;21.30;;;14.52;;
76039;SDS011;64736;50.462;4.850;2023-06-01T10:10:43;25.00;;;15.60;;
76039;SDS011;64736;50.462;4.850;2023-06-01T10:13:10;23.17;;;14.38;;
76039;SDS011;64736;50.462;4.850;2023-06-01T10:15:37;22.00;;;14.40;;
76039;SDS011;64736;50.462;4.850;2023-06-01T10:18:03;22.10;;;13.48;;
76039;SDS011;64736;50.462;4.850;2023-06-01T10:20:33;21.92;;;14.48;;
76039;SDS011;64736;50.462;4.850;2023-06-01T10:23:01;20.30;;;13.32;;
76039;SDS011;64736;50.462;4.850;2023-06-01T10:25:38;21.17;;;12.63;;
76039;SDS011;64736;50.462;4.850;2023-06-01T10:28:24;20.65;;;12.27;;
76039;SDS011;64736;50.462;4.850;2023-06-01T10:33:57;21.50;;;13.60;;
76039;SDS011;64736;50.462;4.850;2023-06-01T10:36:23;17.58;;;11.65;;
76039;SDS011;64736;50.462;4.850;2023-06-01T10:39:20;20.17;;;12.40;;
76039;SDS011;64736;50.462;4.850;2023-06-01T10:41:58;16.70;;;11.10;;
76039;SDS011;64736;50.462;4.850;2023-06-01T10:44:45;16.65;;;10.93;;
76039;SDS011;64736;50.462;4.850;2023-06-01T10:57:39;14.30;;;9.30;;
76039;SDS011;64736;50.462;4.850;2023-06-01T11:03:02;14.65;;;10.18;;
76039;SDS011;64736;50.462;4.850;2023-06-01T11:08:04;15.60;;;10.77;;
76039;SDS011;64736;50.462;4.850;2023-06-01T11:13:16;16.38;;;9.63;;
76039;SDS011;64736;50.462;4.850;2023-06-01T11:18:47;15.30;;;10.32;;
76039;SDS011;64736;50.462;4.850;2023-06-01T11:21:24;13.63;;;9.95;;
76039;SDS011;64736;50.462;4.850;2023-06-01T11:24:14;12.10;;;8.63;;
76039;SDS011;64736;50.462;4.850;2023-06-01T11:26:48;13.63;;;9.18;;
76039;SDS011;64736;50.462;4.850;2023-06-01T11:29:17;14.82;;;8.95;;
76039;SDS011;64736;50.462;4.850;2023-06-01T11:31:55;12.50;;;8.32;;
76039;SDS011;64736;50.462;4.850;2023-06-01T11:34:34;13.45;;;8.27;;
76039;SDS011;64736;50.462;4.850;2023-06-01T11:37:04;11.27;;;8.10;;
76039;SDS011;64736;50.462;4.850;2023-06-01T11:39:31;11.75;;;7.70;;
76039;SDS011;64736;50.462;4.850;2023-06-01T11:44:35;17.02;;;9.43;;
76039;SDS011;64736;50.462;4.850;2023-06-01T11:47:01;12.55;;;9.02;;
76039;SDS011;64736;50.462;4.850;2023-06-01T11:49:28;13.00;;;7.25;;
76039;SDS011;64736;50.462;4.850;2023-06-01T11:51:54;14.32;;;8.30;;
76039;SDS011;64736;50.462;4.850;2023-06-01T11:54:24;15.48;;;9.25;;
76039;SDS011;64736;50.462;4.850;2023-06-01T11:56:51;12.85;;;9.15;;
76039;SDS011;64736;50.462;4.850;2023-06-01T11:59:18;15.70;;;9.52;;
76039;SDS011;64736;50.462;4.850;2023-06-01T12:01:45;11.55;;;7.60;;
76039;SDS011;64736;50.462;4.850;2023-06-01T12:04:23;11.13;;;7.40;;
76039;SDS011;64736;50.462;4.850;2023-06-01T12:06:50;13.10;;;8.60;;
76039;SDS011;64736;50.462;4.850;2023-06-01T12:09:16;14.60;;;8.85;;
76039;SDS011;64736;50.462;4.850;2023-06-01T12:11:45;15.15;;;9.48;;
76039;SDS011;64736;50.462;4.850;2023-06-01T12:14:11;12.98;;;7.93;;
76039;SDS011;64736;50.462;4.850;2023-06-01T12:19:19;12.27;;;7.60;;
76039;SDS011;64736;50.462;4.850;2023-06-01T12:21:47;11.93;;;7.38;;
76039;SDS011;64736;50.462;4.850;2023-06-01T12:24:17;11.40;;;7.60;;
76039;SDS011;64736;50.462;4.850;2023-06-01T12:26:43;15.05;;;8.90;;
76039;SDS011;64736;50.462;4.850;2023-06-01T12:29:10;10.98;;;8.38;;
76039;SDS011;64736;50.462;4.850;2023-06-01T12:31:35;12.27;;;8.48;;
76039;SDS011;64736;50.462;4.850;2023-06-01T12:34:01;14.73;;;9.18;;
76039;SDS011;64736;50.462;4.850;2023-06-01T12:36:34;11.23;;;8.10;;
76039;SDS011;64736;50.462;4.850;2023-06-01T12:39:02;9.65;;;7.13;;
76039;SDS011;64736;50.462;4.850;2023-06-01T12:41:30;11.00;;;7.50;;
76039;SDS011;64736;50.462;4.850;2023-06-01T12:43:56;12.65;;;7.88;;
76039;SDS011;64736;50.462;4.850;2023-06-01T12:46:27;12.20;;;7.97;;
76039;SDS011;64736;50.462;4.850;2023-06-01T12:49:07;11.60;;;7.57;;
76039;SDS011;64736;50.462;4.850;2023-06-01T12:51:37;11.82;;;7.95;;
76039;SDS011;64736;50.462;4.850;2023-06-01T12:54:03;9.45;;;6.93;;
76039;SDS011;64736;50.462;4.850;2023-06-01T12:56:29;12.95;;;7.15;;
76039;SDS011;64736;50.462;4.850;2023-06-01T12:58:55;14.93;;;8.45;;
76039;SDS011;64736;50.462;4.850;2023-06-01T13:01:21;12.23;;;7.55;;
76039;SDS011;64736;50.462;4.850;2023-06-01T13:03:47;12.38;;;8.15;;
76039;SDS011;64736;50.462;4.850;2023-06-01T13:06:15;12.65;;;8.80;;
76039;SDS011;64736;50.462;4.850;2023-06-01T13:08:44;13.55;;;8.07;;
76039;SDS011;64736;50.462;4.850;2023-06-01T13:11:10;14.57;;;8.68;;
76039;SDS011;64736;50.462;4.850;2023-06-01T13:13:35;10.25;;;7.43;;
76039;SDS011;64736;50.462;4.850;2023-06-01T13:16:01;16.50;;;9.02;;
76039;SDS011;64736;50.462;4.850;2023-06-01T13:18:27;14.48;;;8.07;;
76039;SDS011;64736;50.462;4.850;2023-06-01T13:20:54;13.75;;;9.05;;
76039;SDS011;64736;50.462;4.850;2023-06-01T13:23:21;12.02;;;8.65;;
76039;SDS011;64736;50.462;4.850;2023-06-01T13:25:47;12.95;;;7.10;;
76039;SDS011;64736;50.462;4.850;2023-06-01T13:28:13;10.10;;;7.53;;
76039;SDS011;64736;50.462;4.850;2023-06-01T13:30:40;10.18;;;6.78;;
76039;SDS011;64736;50.462;4.850;2023-06-01T13:33:07;12.90;;;7.57;;
76039;SDS011;64736;50.462;4.850;2023-06-01T13:35:34;11.63;;;7.50;;
76039;SDS011;64736;50.462;4.850;2023-06-01T13:37:59;12.07;;;7.65;;
76039;SDS011;64736;50.462;4.850;2023-06-01T13:40:27;10.73;;;7.75;;
76039;SDS011;64736;50.462;4.850;2023-06-01T13:42:53;10.45;;;6.20;;
76039;SDS011;64736;50.462;4.850;2023-06-01T13:45:19;11.43;;;7.97;;
76039;SDS011;64736;50.462;4.850;2023-06-01T13:47:46;12.85;;;7.78;;
76039;SDS011;64736;50.462;4.850;2023-06-01T13:50:14;14.07;;;7.03;;
76039;SDS011;64736;50.462;4.850;2023-06-01T13:52:40;13.45;;;7.47;;
76039;SDS011;64736;50.462;4.850;2023-06-01T13:55:06;13.40;;;8.48;;
76039;SDS011;64736;50.462;4.850;2023-06-01T13:57:33;13.32;;;8.05;;
76039;SDS011;64736;50.462;4.850;2023-06-01T13:59:59;11.73;;;7.72;;
76039;SDS011;64736;50.462;4.850;2023-06-01T14:02:25;13.70;;;8.48;;
76039;SDS011;64736;50.462;4.850;2023-06-01T14:04:50;13.35;;;7.40;;
76039;SDS011;64736;50.462;4.850;2023-06-01T14:07:17;10.38;;;6.85;;
76039;SDS011;64736;50.462;4.850;2023-06-01T14:09:43;14.98;;;9.43;;
76039;SDS011;64736;50.462;4.850;2023-06-01T14:12:09;13.57;;;7.80;;
76039;SDS011;64736;50.462;4.850;2023-06-01T14:14:36;13.25;;;7.80;;
76039;SDS011;64736;50.462;4.850;2023-06-01T14:17:03;11.75;;;7.15;;
76039;SDS011;64736;50.462;4.850;2023-06-01T14:19:29;12.40;;;6.72;;
76039;SDS011;64736;50.462;4.850;2023-06-01T14:21:54;14.05;;;7.97;;
76039;SDS011;64736;50.462;4.850;2023-06-01T14:24:20;12.18;;;7.60;;
76039;SDS011;64736;50.462;4.850;2023-06-01T14:26:47;10.85;;;7.05;;
76039;SDS011;64736;50.462;4.850;2023-06-01T14:29:13;10.50;;;6.63;;
76039;SDS011;64736;50.462;4.850;2023-06-01T14:31:39;11.73;;;6.07;;
76039;SDS011;64736;50.462;4.850;2023-06-01T14:34:04;12.15;;;6.97;;
76039;SDS011;64736;50.462;4.850;2023-06-01T14:36:30;13.20;;;9.25;;
76039;SDS011;64736;50.462;4.850;2023-06-01T14:38:57;12.15;;;7.13;;
76039;SDS011;64736;50.462;4.850;2023-06-01T14:41:22;11.80;;;6.65;;
76039;SDS011;64736;50.462;4.850;2023-06-01T14:43:48;11.25;;;6.57;;
76039;SDS011;64736;50.462;4.850;2023-06-01T14:46:14;10.90;;;6.65;;
76039;SDS011;64736;50.462;4.850;2023-06-01T14:48:40;10.88;;;7.43;;
76039;SDS011;64736;50.462;4.850;2023-06-01T14:51:05;11.20;;;7.25;;
76039;SDS011;64736;50.462;4.850;2023-06-01T14:53:31;10.57;;;7.20;;
76039;SDS011;64736;50.462;4.850;2023-06-01T14:55:57;10.75;;;6.88;;
76039;SDS011;64736;50.462;4.850;2023-06-01T14:58:23;11.80;;;6.80;;
76039;SDS011;64736;50.462;4.850;2023-06-01T15:00:48;9.65;;;6.55;;
76039;SDS011;64736;50.462;4.850;2023-06-01T15:03:15;13.02;;;6.93;;
76039;SDS011;64736;50.462;4.850;2023-06-01T15:05:41;10.63;;;6.30;;
76039;SDS011;64736;50.462;4.850;2023-06-01T15:08:07;14.77;;;7.45;;
76039;SDS011;64736;50.462;4.850;2023-06-01T15:10:33;13.45;;;7.38;;
76039;SDS011;64736;50.462;4.850;2023-06-01T15:12:59;13.38;;;8.82;;
76039;SDS011;64736;50.462;4.850;2023-06-01T15:15:25;12.90;;;7.15;;
76039;SDS011;64736;50.462;4.850;2023-06-01T15:17:52;13.13;;;7.75;;
76039;SDS011;64736;50.462;4.850;2023-06-01T15:20:18;11.60;;;7.43;;
76039;SDS011;64736;50.462;4.850;2023-06-01T15:22:43;9.70;;;6.65;;
76039;SDS011;64736;50.462;4.850;2023-06-01T15:25:09;9.98;;;6.20;;
76039;SDS011;64736;50.462;4.850;2023-06-01T15:27:35;11.85;;;6.85;;
76039;SDS011;64736;50.462;4.850;2023-06-01T15:30:01;10.38;;;6.45;;
76039;SDS011;64736;50.462;4.850;2023-06-01T15:32:27;12.57;;;6.55;;